CheckWX is a tool to help pilots better visualize weather data.  It is not intended as a substitute for an official pre-flight weather briefing.

07:29:38 UTC

CYXX METAR
Abbotsford Airport
Abbotsford, Canada
Current

30 mins ago

CYXX 210700Z 22005KT 10SM -RA FEW015 BKN035 OVC057 10/09 A2975 RMK SF1SC4SC3 SLP075
Observed
May-21 @ 07:00 UTC
Wind
  • 220° at 5 KTS
Visibility
10 SM
Flight Rules
VFR
Conditions
Light Rain
Cloud Levels
  • Few at 1,500' AGL
  • Broken at 3,500' AGL
  • Overcast at 5,700' AGL
Temperature
10°C / 50°F
Dewpoint
C / 48°F
Humidity
94%
Altimeter
29.75" Hg
Pressure
1007.42 hPa
Previous

1 hour ago

CYXX 210600Z 20005KT 10SM -RA FEW005 FEW015 BKN035 OVC050 11/10 A2975 RMK SF1SF1SC6SC1 SF TR SLP076
Observed
May-21 @ 06:00 UTC
Wind
  • 200° at 5 KTS
Visibility
10 SM
Flight Rules
VFR
Conditions
Light Rain
Cloud Levels
  • Few at 500' AGL
  • Few at 1,500' AGL
  • Broken at 3,500' AGL
  • Overcast at 5,000' AGL
Temperature
11°C / 52°F
Dewpoint
10°C / 50°F
Humidity
94%
Altimeter
29.75" Hg
Pressure
1007.42 hPa
Previous

2 hours ago

CYXX 210503Z 21003KT 15SM -RA FEW005 FEW015 BKN035 OVC050 11/10 A2975 RMK SF1SF2SC5SC1 SF TR -RA VRY LGT SLP077
Observed
May-21 @ 05:03 UTC
Wind
  • 210° at 3 KTS
Visibility
15 SM
Flight Rules
VFR
Conditions
Light Rain
Cloud Levels
  • Few at 500' AGL
  • Few at 1,500' AGL
  • Broken at 3,500' AGL
  • Overcast at 5,000' AGL
Temperature
11°C / 52°F
Dewpoint
10°C / 50°F
Humidity
94%
Altimeter
29.75" Hg
Pressure
1007.42 hPa